Time;durP1;ratioP1;P1;durP2;ratioP2;P2;SDS_P1;SDS_P2;PMS_P1;PMS_P2;Temp;Humidity;BMP_temperature;BMP_pressure;BME280_temperature;BME280_humidity;BME280_pressure;Samples;Min_cycle;Max_cycle;Signal;HPM_P1;HPM_P2
2022/09/01 12:14:06;;;;;;;5.55;1.50;;;;;;;15.45;42.51;99063.03;4871246;29;20068;-89
2022/09/01 12:16:36;;;;;;;2.42;1.30;;;;;;;15.25;43.01;99026.28;4869468;29;20045;-88
2022/09/01 12:19:04;;;;;;;16.67;2.95;;;;;;;15.28;43.57;99017.34;4864772;29;20506;-88
2022/09/01 12:22:21;;;;;;;11.30;2.97;;;;;;;15.70;43.37;99058.25;4866374;29;20045;-89
2022/09/01 12:24:52;;;;;;;17.67;2.35;;;;;;;15.48;43.24;99028.50;4866580;29;20048;-88
2022/09/01 12:27:22;;;;;;;3.10;1.58;;;;;;;15.23;42.67;99030.53;4866954;29;20037;-87
2022/09/01 12:29:50;;;;;;;3.17;1.48;;;;;;;14.70;42.86;98961.84;4875768;29;20065;-86
2022/09/01 12:35:18;;;;;;;6.47;2.03;;;;;;;15.41;43.76;99022.78;4833909;29;20054;-87
2022/09/01 12:37:45;;;;;;;5.82;1.70;;;;;;;15.16;42.25;98965.06;4820292;29;20551;-85
2022/09/01 12:40:24;;;;;;;11.10;1.90;;;;;;;15.28;42.76;98978.78;4805063;29;20149;-88
2022/09/01 12:42:53;;;;;;;2.47;1.52;;;;;;;14.98;43.07;98953.59;4803353;29;20114;-87
2022/09/01 12:45:47;;;;;;;4.40;1.23;;;;;;;15.47;42.90;99051.69;4816482;29;20054;-87
2022/09/01 12:48:31;;;;;;;8.88;1.40;;;;;;;14.96;42.72;98988.91;4797355;29;20141;-88
2022/09/01 12:51:01;;;;;;;3.13;1.60;;;;;;;14.62;43.08;98957.28;4811003;29;20054;-90
2022/09/01 12:53:33;;;;;;;5.18;1.40;;;;;;;14.94;43.66;99010.50;4812707;29;20113;-88
2022/09/01 12:56:31;;;;;;;7.13;1.50;;;;;;;15.10;43.93;98999.53;4810612;29;20128;-91
2022/09/01 12:59:20;;;;;;;4.88;1.42;;;;;;;15.34;43.37;99039.91;4812772;29;20119;-89
2022/09/01 13:01:49;;;;;;;6.32;1.50;;;;;;;15.28;43.17;99024.81;4827167;29;20042;-90
2022/09/01 13:04:36;;;;;;;4.43;1.60;;;;;;;15.18;43.06;98984.81;4827529;29;20053;-89
2022/09/01 13:07:27;;;;;;;7.35;1.50;;;;;;;15.43;42.70;99009.44;4827580;29;20073;-87
2022/09/01 13:09:54;;;;;;;2.53;1.55;;;;;;;15.58;42.93;99027.19;4808640;29;20131;-90
2022/09/01 13:12:22;;;;;;;4.22;1.92;;;;;;;15.49;41.86;99014.34;4830964;29;20053;-83
2022/09/01 13:17:22;;;;;;;11.45;1.83;;;;;;;15.66;43.03;99037.22;4866369;29;20049;-87
2022/09/01 13:20:04;;;;;;;5.95;1.40;;;;;;;15.69;42.86;99044.81;4866273;29;20190;-89
2022/09/01 13:22:30;;;;;;;7.20;2.30;;;;;;;15.65;42.38;99022.66;4846781;29;20042;-90
2022/09/01 13:25:22;;;;;;;3.03;1.33;;;;;;;15.70;42.46;99035.41;4829717;29;20053;-93
2022/09/01 13:27:49;;;;;;;9.05;1.42;;;;;;;15.68;42.36;99027.47;4845135;29;20117;-93
2022/09/01 13:30:19;;;;;;;;;;;;;;;15.90;42.81;99023.31;4849729;29;20060;-90
2022/09/01 13:32:54;;;;;;;5.15;1.60;;;;;;;15.56;42.88;98999.16;4848499;29;19920;-91
2022/09/01 13:35:23;;;;;;;2.88;1.27;;;;;;;15.35;43.26;98974.63;4864483;29;20045;-92
2022/09/01 13:37:50;;;;;;;6.05;1.20;;;;;;;15.40;43.70;99004.69;4862353;29;20037;-86
2022/09/01 13:40:21;;;;;;;7.20;1.60;;;;;;;15.40;44.41;98997.22;4861719;29;20057;-90
2022/09/01 13:42:53;;;;;;;2.85;1.40;;;;;;;14.90;44.41;98943.53;4861032;29;20081;-90
2022/09/01 13:45:30;;;;;;;2.15;1.48;;;;;;;15.17;45.31;99001.69;4856916;29;20064;-89
2022/09/01 13:47:57;;;;;;;5.50;1.40;;;;;;;15.37;45.36;99021.91;4860513;29;20045;-91
2022/09/01 13:50:24;;;;;;;5.22;1.40;;;;;;;14.79;45.09;98934.16;4844848;29;20140;-88
2022/09/01 13:52:57;;;;;;;2.22;1.63;;;;;;;14.92;45.27;98968.75;4863107;29;20041;-89
2022/09/01 13:55:31;;;;;;;11.00;1.38;;;;;;;14.93;45.72;98969.53;4859156;29;20052;-89
2022/09/01 13:58:03;;;;;;;10.65;2.00;;;;;;;15.15;45.63;98992.97;4860242;29;20041;-84
2022/09/01 14:00:36;;;;;;;6.15;1.80;;;;;;;15.48;45.49;99023.78;4865720;29;20105;-89
2022/09/01 14:03:12;;;;;;;2.67;1.42;;;;;;;15.36;44.60;98990.78;4870883;29;20105;-88
2022/09/01 14:05:44;;;;;;;6.15;1.80;;;;;;;15.55;44.55;99038.91;4855697;29;20045;-90
2022/09/01 14:08:14;;;;;;;4.97;1.40;;;;;;;15.34;44.96;99028.91;4869780;29;20060;-89
2022/09/01 14:10:45;;;;;;;5.10;1.23;;;;;;;14.69;45.61;98953.94;4851408;29;20037;-90
2022/09/01 14:13:24;;;;;;;2.30;1.25;;;;;;;14.74;45.19;98953.69;4875301;29;20061;-89
2022/09/01 14:15:53;;;;;;;12.98;1.73;;;;;;;15.13;44.92;98989.75;4857878;29;20067;-89
2022/09/01 14:18:20;;;;;;;1.83;1.30;;;;;;;14.96;45.03;98975.13;4853804;29;20057;-85
2022/09/01 14:20:49;;;;;;;1.30;1.20;;;;;;;15.26;44.83;99035.34;4856162;29;20041;-88
2022/09/01 14:23:19;;;;;;;5.47;1.42;;;;;;;15.32;45.17;99038.66;4840831;29;20037;-88
2022/09/01 14:25:48;;;;;;;7.43;1.38;;;;;;;15.13;45.44;99033.81;4872679;29;20041;-89
2022/09/01 14:28:15;;;;;;;5.18;1.50;;;;;;;14.63;45.69;98983.63;4842487;29;20168;-91
2022/09/01 14:30:42;;;;;;;5.97;1.48;;;;;;;14.69;46.52;99009.75;4856612;29;20085;-89
2022/09/01 14:33:09;;;;;;;7.07;1.63;;;;;;;14.28;47.02;98967.63;4855847;29;20136;-91
2022/09/01 14:35:38;;;;;;;2.25;1.40;;;;;;;14.28;47.55;98981.38;4870362;29;20045;-88
2022/09/01 14:38:30;;;;;;;15.73;1.95;;;;;;;14.55;52.77;99064.34;4846752;29;20046;-90
2022/09/01 14:41:13;;;;;;;5.78;1.60;;;;;;;14.31;54.74;99026.63;4854349;29;20375;-90
2022/09/01 14:43:41;;;;;;;10.80;1.67;;;;;;;13.78;54.44;98944.09;4855976;29;20037;-91
2022/09/01 14:46:09;;;;;;;5.75;1.33;;;;;;;14.00;55.50;98977.72;4872856;29;20123;-91
2022/09/01 14:48:38;;;;;;;5.53;1.67;;;;;;;14.34;55.18;99036.94;4862448;29;20052;-89
2022/09/01 14:51:05;;;;;;;2.20;1.50;;;;;;;14.27;54.03;99036.69;4856760;29;20522;-87
2022/09/01 14:53:31;;;;;;;2.90;1.60;;;;;;;13.98;52.93;99002.03;4831941;29;20047;-89
2022/09/01 14:56:03;;;;;;;4.53;1.40;;;;;;;14.14;53.69;99048.84;4861629;29;20045;-90
2022/09/01 14:58:32;;;;;;;5.07;1.40;;;;;;;14.09;53.71;99045.19;4870822;29;20787;-87
2022/09/01 15:00:58;;;;;;;1.90;1.40;;;;;;;13.99;52.69;99047.59;4857215;29;20042;-90
2022/09/01 15:03:25;;;;;;;6.18;1.95;;;;;;;13.77;53.37;99024.88;4848395;29;20044;-88
2022/09/01 15:06:03;;;;;;;5.90;1.98;;;;;;;13.61;53.65;98989.06;4876521;29;20049;-92
2022/09/01 15:08:30;;;;;;;2.50;1.75;;;;;;;13.62;53.87;99007.13;4873418;29;20427;-88
2022/09/01 15:10:56;;;;;;;5.63;1.90;;;;;;;13.99;53.35;99062.13;4869391;29;20041;-89
2022/09/01 15:13:24;;;;;;;10.15;1.98;;;;;;;14.06;53.15;99065.09;4845850;29;20651;-90
2022/09/01 15:15:51;;;;;;;2.17;1.50;;;;;;;13.41;55.16;99000.91;4845963;29;20049;-88
2022/09/01 15:18:18;;;;;;;11.68;2.40;;;;;;;13.50;58.80;99052.97;4864972;29;20053;-88
2022/09/01 15:20:44;;;;;;;4.28;2.13;;;;;;;13.39;60.17;99055.34;4850762;29;20041;-87
2022/09/01 15:23:12;;;;;;;10.20;2.13;;;;;;;13.21;62.31;99034.66;4833016;29;20185;-87
2022/09/01 15:25:38;;;;;;;4.47;1.88;;;;;;;12.96;63.08;99022.78;4844545;29;20049;-87
2022/09/01 15:28:05;;;;;;;9.53;2.07;;;;;;;13.03;63.39;99037.56;4850255;29;20156;-92
2022/09/01 15:30:32;;;;;;;3.75;1.70;;;;;;;13.01;62.39;99047.25;4853096;29;20045;-88
2022/09/01 15:32:58;;;;;;;;;;;;;;;13.16;62.46;99077.63;4860008;29;20038;-89
2022/09/01 15:35:27;;;;;;;6.28;1.90;;;;;;;13.07;63.71;99073.34;4841047;29;19928;-87
2022/09/01 15:37:54;;;;;;;11.32;2.33;;;;;;;12.83;63.49;99047.41;4856567;29;20411;-87
2022/09/01 15:40:23;;;;;;;9.80;2.17;;;;;;;13.06;64.29;99066.28;4856579;29;20069;-87
2022/09/01 15:42:50;;;;;;;8.25;2.15;;;;;;;12.90;63.31;99052.34;4856784;29;20057;-90
2022/09/01 15:45:19;;;;;;;7.07;2.30;;;;;;;12.94;64.61;99053.28;4860773;29;20527;-89
2022/09/01 15:47:47;;;;;;;6.72;1.92;;;;;;;12.94;62.94;99050.53;4856438;29;20101;-86
2022/09/01 15:50:17;;;;;;;4.70;2.03;;;;;;;12.85;63.02;99058.06;4859962;29;20048;-85
2022/09/01 15:52:53;;;;;;;6.72;1.77;;;;;;;12.84;63.20;99064.66;4849477;29;20148;-86
2022/09/01 15:55:23;;;;;;;9.20;1.77;;;;;;;12.83;63.35;99066.59;4864405;29;20052;-84
2022/09/01 15:57:51;;;;;;;7.03;1.90;;;;;;;12.70;63.02;99043.78;4858928;29;20703;-86
2022/09/01 16:00:18;;;;;;;3.90;1.77;;;;;;;12.41;63.12;99011.72;4871360;29;20056;-88
2022/09/01 16:02:46;;;;;;;6.88;2.63;;;;;;;12.75;63.35;99061.16;4857525;29;20862;-83
2022/09/01 16:05:13;;;;;;;7.65;2.67;;;;;;;12.56;64.13;99034.22;4857569;29;20590;-85
2022/09/01 16:07:40;;;;;;;3.70;1.77;;;;;;;12.69;63.81;99066.06;4853127;29;20069;-90
2022/09/01 16:10:12;;;;;;;5.22;2.53;;;;;;;12.41;63.55;99028.16;4851972;29;20041;-86
2022/09/01 16:12:42;;;;;;;7.05;2.60;;;;;;;12.35;64.46;99029.50;4850626;29;20056;-83
2022/09/01 16:15:14;;;;;;;11.70;3.78;;;;;;;12.17;64.66;99011.53;4849668;29;20095;-85
2022/09/01 16:18:19;;;;;;;23.55;8.80;;;;;;;12.62;64.33;99063.06;4849097;29;20093;-86
2022/09/01 16:20:58;;;;;;;17.60;8.07;;;;;;;12.34;64.55;99022.41;4834996;29;20866;-87
2022/09/01 16:23:42;;;;;;;9.50;4.10;;;;;;;12.29;63.16;99011.66;4820045;29;20042;-86
2022/09/01 16:26:10;;;;;;;11.00;4.32;;;;;;;12.64;63.89;99063.50;4850501;29;20559;-86
2022/09/01 16:28:55;;;;;;;8.98;4.10;;;;;;;12.56;64.27;99050.66;4846263;29;20553;-85
2022/09/01 16:31:31;;;;;;;13.80;3.85;;;;;;;12.68;64.37;99075.41;4852074;29;20045;-88
2022/09/01 16:34:02;;;;;;;8.20;1.88;;;;;;;12.55;61.14;99068.22;4833138;29;20038;-86
2022/09/01 16:36:44;;;;;;;6.38;1.70;;;;;;;12.25;61.99;99048.25;4835034;29;20045;-85
2022/09/01 16:39:55;;;;;;;5.07;1.73;;;;;;;12.37;62.17;99073.81;4850908;29;20914;-85
2022/09/01 16:42:49;;;;;;;4.40;1.40;;;;;;;12.34;62.44;99069.00;4833726;29;20156;-86
2022/09/01 16:45:39;;;;;;;5.72;2.05;;;;;;;12.22;64.06;99072.47;4862769;29;20054;-86
2022/09/01 16:48:17;;;;;;;17.30;3.08;;;;;;;12.13;63.55;99046.22;4848035;29;20049;-88
2022/09/01 16:51:05;;;;;;;5.07;2.63;;;;;;;12.01;64.01;99043.38;4832427;29;20050;-87
2022/09/01 16:53:49;;;;;;;5.47;1.70;;;;;;;12.07;62.31;99074.94;4863338;29;20057;-85
2022/09/01 16:56:21;;;;;;;2.35;1.58;;;;;;;11.96;64.34;99075.31;4846890;29;20711;-86
2022/09/01 16:59:12;;;;;;;4.90;2.00;;;;;;;11.81;64.70;99064.03;4831708;29;20073;-87
2022/09/01 17:01:54;;;;;;;4.15;1.90;;;;;;;11.85;65.75;99071.28;4816201;29;20239;-84
2022/09/01 17:04:46;;;;;;;5.65;2.60;;;;;;;11.80;66.43;99070.66;4847448;29;20052;-87
2022/09/01 17:07:14;;;;;;;6.22;3.30;;;;;;;11.83;66.78;99079.03;4846468;29;20288;-87
2022/09/01 17:09:44;;;;;;;6.22;3.17;;;;;;;11.70;66.83;99058.13;4848822;29;20718;-87
2022/09/01 17:12:13;;;;;;;6.20;2.90;;;;;;;11.75;67.62;99075.19;4833200;29;20056;-87
2022/09/01 17:14:54;;;;;;;5.63;2.60;;;;;;;11.55;66.98;99061.38;4861278;29;20045;-88
2022/09/01 17:17:25;;;;;;;8.32;3.13;;;;;;;11.47;67.63;99041.09;4866028;29;20555;-89
2022/09/01 17:19:53;;;;;;;6.53;2.92;;;;;;;11.60;67.42;99048.31;4850282;29;20072;-89
2022/09/01 17:22:20;;;;;;;6.45;3.00;;;;;;;11.53;67.83;99039.81;4888357;29;20041;-87
2022/09/01 17:25:02;;;;;;;5.57;2.80;;;;;;;11.68;67.77;99077.59;4848157;29;20052;-88
2022/09/01 17:27:49;;;;;;;6.22;3.10;;;;;;;11.51;67.59;99047.53;4875067;29;20503;-89
2022/09/01 17:30:16;;;;;;;7.95;2.75;;;;;;;11.33;68.02;99027.63;4868527;29;20056;-87
2022/09/01 17:33:07;;;;;;;5.13;2.92;;;;;;;11.67;67.84;99083.41;4873635;29;20053;-87
2022/09/01 17:36:00;;;;;;;6.45;3.33;;;;;;;11.61;67.42;99076.50;4902503;29;20045;-89
2022/09/01 17:38:52;;;;;;;10.10;5.20;;;;;;;11.44;67.32;99053.50;4854518;29;20042;-91
2022/09/01 17:41:55;;;;;;;9.15;4.78;;;;;;;11.57;67.61;99081.03;4847371;29;20115;-89
2022/09/01 17:45:15;;;;;;;8.63;5.32;;;;;;;11.59;68.46;99078.75;4878068;29;20145;-88
2022/09/01 17:47:56;;;;;;;9.82;6.50;;;;;;;11.64;67.55;99081.31;4865570;29;20049;-90
2022/09/01 17:54:51;;;;;;;9.13;2.33;;;;;;;11.49;67.41;99083.47;4864756;29;20084;-90
2022/09/01 17:57:41;;;;;;;8.32;2.40;;;;;;;11.07;67.42;99024.13;4865245;29;20049;-88
2022/09/01 18:00:22;;;;;;;7.35;2.55;;;;;;;11.49;67.55;99097.13;4865836;29;20041;-93
2022/09/01 18:03:25;;;;;;;3.78;2.10;;;;;;;11.43;67.22;99083.94;4868849;29;20045;-89
2022/09/01 18:06:03;;;;;;;7.80;2.20;;;;;;;11.24;66.16;99044.03;4861574;29;20141;-88
2022/09/01 18:08:59;;;;;;;3.00;1.88;;;;;;;10.93;66.30;99014.16;4851734;29;20095;-88
2022/09/01 18:11:55;;;;;;;7.45;2.15;;;;;;;11.47;66.24;99090.38;4863937;29;20515;-89
2022/09/01 18:14:47;;;;;;;4.00;2.08;;;;;;;11.44;65.11;99080.06;4843437;29;20077;-88
2022/09/01 18:17:37;;;;;;;9.23;2.22;;;;;;;11.51;65.48;99080.38;4831664;29;20056;-89
2022/09/01 18:20:31;;;;;;;3.83;2.00;;;;;;;11.60;64.23;99077.63;4877159;29;20043;-88
2022/09/01 18:23:20;;;;;;;4.82;2.10;;;;;;;11.64;64.94;99086.81;4875294;29;20049;-88
2022/09/01 18:26:08;;;;;;;3.90;2.00;;;;;;;11.45;64.01;99046.88;4842480;29;20061;-89
2022/09/01 18:28:35;;;;;;;4.72;1.98;;;;;;;11.70;64.36;99089.03;4858923;29;20053;-89
2022/09/01 18:31:36;;;;;;;5.18;1.95;;;;;;;11.71;64.97;99081.63;4856363;29;20060;-89
2022/09/01 18:34:54;;;;;;;4.85;2.13;;;;;;;11.76;64.29;99078.72;4860825;29;20049;-89
2022/09/01 18:41:01;;;;;;;;;;;;;;;11.78;63.73;99079.19;4872365;29;20047;-87
2022/09/01 18:43:52;;;;;;;12.88;4.53;;;;;;;11.90;64.30;99078.56;4862938;29;20596;-87
2022/09/01 18:46:25;;;;;;;15.57;3.05;;;;;;;11.81;64.09;99075.00;4860788;29;20052;-86
2022/09/01 18:49:23;;;;;;;8.38;3.55;;;;;;;11.70;64.38;99067.13;4844116;29;20045;-87
2022/09/01 18:52:23;;;;;;;10.57;3.03;;;;;;;11.75;64.55;99072.44;4858068;29;20125;-86
2022/09/01 18:54:58;;;;;;;9.25;2.30;;;;;;;11.75;63.86;99077.09;4848301;29;20670;-88
2022/09/01 18:57:35;;;;;;;6.97;2.70;;;;;;;11.73;64.22;99065.69;4832456;29;20061;-85
2022/09/01 19:00:11;;;;;;;11.00;3.90;;;;;;;11.60;64.80;99042.84;4859813;29;20044;-86
2022/09/01 19:02:53;;;;;;;14.80;3.50;;;;;;;11.84;64.99;99077.09;4841519;29;20030;-87
2022/09/01 19:05:46;;;;;;;6.10;2.80;;;;;;;11.75;65.44;99068.88;4876372;29;20045;-87
2022/09/01 19:11:57;;;;;;;11.10;2.80;;;;;;;11.62;65.32;99069.88;4869722;29;20089;-86
2022/09/01 19:23:15;;;;;;;6.57;2.72;;;;;;;11.51;65.91;99062.00;4870858;29;20081;-88
2022/09/01 19:25:42;;;;;;;7.45;2.85;;;;;;;11.13;66.19;99003.69;4859761;29;20097;-87
2022/09/01 19:32:16;;;;;;;14.38;3.45;;;;;;;11.00;66.52;98997.25;4871485;29;20044;-89
2022/09/01 19:35:40;;;;;;;9.90;3.70;;;;;;;10.89;66.21;99004.97;4867350;23;20085;-88
2022/09/01 19:38:07;;;;;;;6.55;2.65;;;;;;;10.72;65.73;98999.50;4880928;24;20662;-87
2022/09/01 19:40:38;;;;;;;;;;;;;;;11.11;65.29;99057.91;4878074;29;20060;-88
2022/09/01 19:43:35;;;;;;;8.82;2.78;;;;;;;10.53;65.12;98981.50;4872565;29;19975;-88
2022/09/01 19:47:03;;;;;;;3.78;2.35;;;;;;;11.07;64.93;99065.94;4841115;29;20054;-89
2022/09/01 19:53:47;;;;;;;;;;;;;;;10.96;65.45;99064.63;4840106;29;20046;-88
2022/09/01 19:56:52;;;;;;;13.60;2.90;;;;;;;10.32;65.39;98981.28;4839133;29;19930;-90
2022/09/01 19:59:40;;;;;;;12.15;2.63;;;;;;;10.90;65.13;99072.22;4784596;30;20134;-88
2022/09/01 20:02:33;;;;;;;12.48;2.58;;;;;;;10.82;65.18;99059.31;4746611;30;20206;-90
2022/09/01 20:05:44;;;;;;;11.43;2.60;;;;;;;10.84;65.65;99073.50;4822210;29;20052;-88
2022/09/01 20:08:42;;;;;;;9.95;2.50;;;;;;;10.77;65.73;99079.44;4817868;29;20098;-87
2022/09/01 20:11:31;;;;;;;12.15;2.78;;;;;;;10.80;65.30;99075.25;4839473;29;20531;-88
2022/09/01 20:14:48;;;;;;;6.75;2.28;;;;;;;10.72;65.79;99074.09;4844241;29;20049;-88
2022/09/01 20:21:39;;;;;;;7.13;2.95;;;;;;;10.49;65.54;99054.28;4842214;29;20054;-89
2022/09/01 20:25:11;;;;;;;13.55;2.63;;;;;;;10.56;66.16;99082.00;4879398;29;20105;-89
2022/09/01 20:28:33;;;;;;;22.30;2.97;;;;;;;10.57;66.12;99080.84;4847294;29;20045;-88
2022/09/01 20:31:58;;;;;;;12.30;2.58;;;;;;;10.55;65.95;99074.09;4872977;29;20052;-89
2022/09/01 20:35:06;;;;;;;7.63;2.55;;;;;;;10.51;65.82;99070.38;4846991;29;20148;-91
2022/09/01 20:45:23;;;;;;;7.13;1.90;;;;;;;10.24;65.69;99063.22;4895556;23;20570;-88
2022/09/01 20:48:13;;;;;;;9.95;2.17;;;;;;;10.18;65.82;99037.97;4868034;29;20049;-88
2022/09/01 20:51:06;;;;;;;6.60;2.03;;;;;;;10.32;66.21;99073.38;4883534;29;20048;-88
2022/09/01 20:53:59;;;;;;;8.50;2.72;;;;;;;10.15;65.71;99052.25;4806646;29;20138;-89
2022/09/01 20:56:42;;;;;;;4.70;2.05;;;;;;;10.30;66.17;99070.19;4807006;29;20065;-89
2022/09/01 21:02:36;;;;;;;11.63;2.55;;;;;;;10.37;65.25;99065.06;4794301;29;20047;-88
2022/09/01 21:05:29;;;;;;;7.28;2.10;;;;;;;10.33;65.05;99072.25;4821302;29;20038;-88
2022/09/01 21:08:14;;;;;;;13.05;2.75;;;;;;;10.27;65.73;99068.88;4806235;29;20051;-88
2022/09/01 21:11:01;;;;;;;6.78;2.20;;;;;;;10.17;65.78;99071.88;4805884;29;20050;-88
2022/09/01 21:13:46;;;;;;;13.57;3.08;;;;;;;10.21;65.53;99075.59;4821888;29;20066;-89
2022/09/01 21:17:11;;;;;;;12.77;2.30;;;;;;;10.17;65.57;99068.34;4825667;29;20523;-89
2022/09/01 21:23:08;;;;;;;7.32;1.95;;;;;;;9.72;65.79;99016.59;4754426;30;20052;-89
2022/09/01 21:25:34;;;;;;;8.45;2.15;;;;;;;9.75;66.32;99033.16;4769793;30;20040;-89
2022/09/01 21:28:05;;;;;;;6.78;2.40;;;;;;;10.00;66.27;99069.06;4754694;30;20058;-89
2022/09/01 21:30:39;;;;;;;5.28;1.98;;;;;;;9.97;66.24;99073.25;4808439;29;20054;-89
2022/09/01 21:33:58;;;;;;;5.15;1.67;;;;;;;9.94;66.35;99079.34;4827110;29;20106;-90
2022/09/01 21:37:24;;;;;;;4.38;1.65;;;;;;;9.89;66.53;99080.25;4844098;29;20054;-89
2022/09/01 21:39:52;;;;;;;6.57;1.92;;;;;;;9.44;66.90;99005.03;4859522;29;20046;-89
2022/09/01 21:49:01;;;;;;;7.57;2.10;;;;;;;9.77;67.14;99065.59;4851271;29;20068;-89
2022/09/01 21:51:27;;;;;;;7.05;1.85;;;;;;;9.33;67.54;99008.03;4846537;29;20536;-89
2022/09/01 21:53:53;;;;;;;6.78;2.15;;;;;;;9.36;67.92;99021.06;4828820;29;20044;-90
2022/09/01 21:56:24;;;;;;;13.82;2.90;;;;;;;9.43;68.07;99034.25;4844459;29;20042;-87
2022/09/01 21:59:06;;;;;;;7.10;2.10;;;;;;;9.39;68.18;99036.00;4827763;29;20048;-88
2022/09/01 22:01:36;;;;;;;6.68;2.03;;;;;;;9.00;68.17;98985.69;4842508;29;20046;-92
2022/09/01 22:04:31;;;;;;;5.28;1.90;;;;;;;9.60;68.40;99075.31;4828135;29;20512;-89
2022/09/01 22:07:19;;;;;;;6.70;2.10;;;;;;;9.07;69.11;99002.44;4842718;29;20508;-88
2022/09/01 22:09:51;;;;;;;9.40;1.80;;;;;;;9.00;68.64;98985.69;4842052;29;20041;-89
2022/09/01 22:12:17;;;;;;;4.40;1.65;;;;;;;9.07;68.62;98997.00;4812344;29;20046;-87
2022/09/01 22:14:43;;;;;;;3.13;1.60;;;;;;;9.14;68.79;99012.91;4827977;29;20579;-88
2022/09/01 22:17:35;;;;;;;3.90;2.10;;;;;;;9.48;69.21;99061.44;4829156;29;20512;-89
2022/09/01 22:20:07;;;;;;;9.15;1.48;;;;;;;9.50;69.31;99067.34;4843992;29;20094;-89
2022/09/01 22:23:23;;;;;;;4.20;1.40;;;;;;;9.44;69.48;99070.53;4843749;29;20049;-90
2022/09/01 22:26:27;;;;;;;;;;;;;;;9.38;69.57;99072.59;4843096;29;20137;-88
2022/09/01 22:28:56;;;;;;;5.25;1.70;;;;;;;9.14;69.65;99035.53;4945832;23;19931;-89
2022/09/01 22:31:24;;;;;;;4.75;1.58;;;;;;;9.24;69.66;99053.56;4860037;29;20186;-89
2022/09/01 22:34:09;;;;;;;5.68;1.60;;;;;;;9.38;69.52;99076.13;4873652;29;20061;-90
2022/09/01 22:36:45;;;;;;;6.75;1.65;;;;;;;8.98;69.75;99023.38;4859734;29;20091;-90
2022/09/01 22:39:12;;;;;;;11.98;1.90;;;;;;;9.35;69.95;99075.94;4843214;29;20053;-90
2022/09/01 22:41:39;;;;;;;5.32;1.83;;;;;;;9.36;70.05;99083.00;4857955;29;20626;-89
2022/09/01 22:44:07;;;;;;;4.80;1.80;;;;;;;9.04;69.87;99038.50;4858314;29;20052;-89
2022/09/01 22:46:35;;;;;;;3.42;1.45;;;;;;;9.13;70.35;99071.28;4810297;29;20046;-90
2022/09/01 22:49:04;;;;;;;4.90;1.55;;;;;;;8.85;70.32;99027.78;4804274;29;20083;-88
2022/09/01 22:51:30;;;;;;;3.30;1.65;;;;;;;8.93;70.59;99045.31;4830767;29;20060;-89
2022/09/01 22:58:35;;;;;;;7.07;1.75;;;;;;;9.22;70.42;99096.72;4825473;29;20058;-89
2022/09/01 23:01:09;;;;;;;5.50;1.70;;;;;;;9.02;70.56;99059.00;4842831;29;20061;-89
2022/09/01 23:03:44;;;;;;;5.95;2.00;;;;;;;8.65;70.58;99004.53;4811763;29;20509;-91
2022/09/01 23:06:15;;;;;;;5.93;1.75;;;;;;;8.90;70.38;99043.19;4795913;29;20126;-88
2022/09/01 23:08:48;;;;;;;8.57;2.00;;;;;;;8.80;70.24;99003.34;4826020;29;20140;-89
2022/09/01 23:11:30;;;;;;;10.05;2.28;;;;;;;9.48;70.19;99098.81;4801731;29;20505;-88
2022/09/01 23:14:00;;;;;;;3.45;1.80;;;;;;;9.45;69.85;99083.06;4805187;29;20437;-88
2022/09/01 23:16:27;;;;;;;3.97;1.88;;;;;;;9.08;69.65;99025.06;4805676;29;20093;-89
2022/09/01 23:18:54;;;;;;;4.53;1.67;;;;;;;9.29;69.90;99061.63;4823805;29;20061;-89
2022/09/01 23:21:28;;;;;;;5.60;1.75;;;;;;;9.18;69.36;99039.25;4804532;29;20343;-89
2022/09/01 23:24:06;;;;;;;3.72;1.60;;;;;;;9.41;69.23;99063.78;4805964;29;20054;-88
2022/09/01 23:26:33;;;;;;;4.28;1.70;;;;;;;9.37;69.06;99070.97;4857858;29;20601;-90
2022/09/01 23:29:31;;;;;;;4.32;1.60;;;;;;;9.50;69.42;99102.03;4861088;29;20154;-89
2022/09/01 23:32:14;;;;;;;6.22;1.80;;;;;;;9.26;69.19;99055.97;4873665;29;20041;-89
2022/09/01 23:34:41;;;;;;;2.75;1.50;;;;;;;9.15;69.60;99050.78;4859767;29;20049;-89
2022/09/01 23:38:00;;;;;;;5.32;1.70;;;;;;;9.11;69.29;99036.16;4869848;29;20070;-90
2022/09/01 23:40:53;;;;;;;4.90;1.90;;;;;;;9.61;69.20;99104.22;4871425;29;20060;-89
2022/09/01 23:43:35;;;;;;;3.28;1.92;;;;;;;9.15;69.16;99041.78;4885637;29;20045;-90
2022/09/01 23:46:06;;;;;;;7.28;2.15;;;;;;;9.28;69.74;99076.38;4890416;23;20034;-90
2022/09/01 23:48:33;;;;;;;4.95;1.88;;;;;;;9.50;69.28;99099.31;4852863;29;20056;-90
2022/09/01 23:54:04;;;;;;;1.67;1.50;;;;;;;9.26;68.79;99054.06;4882540;29;19938;-92
2022/09/01 23:56:30;;;;;;;1.98;1.67;;;;;;;8.97;68.83;99029.13;4883515;29;20102;-91
2022/09/01 23:59:03;;;;;;;2.25;1.42;;;;;;;9.22;68.95;99071.34;4850229;29;20432;-90
